Steptoe Valley North, Nevada Weather observations

Data are for 10 minute period ending at time listed.
 Day   Time   Solar   Ave.   Ave.  Ave.  Vector  Max.   Baro.   Total    
  of    of     Rad.   Air    Rel.  Wind   Wind   Wind  Press.  Precip.   
Year   Day            Temp.  Hum.  Speed  Dir.   Gust                    
2014   (PST)  Kw/m2    F      %     mph   deg.    mph    mb.     in.     
-------------------------------------------------------------------------
 330   23:00   0.00   34.6    51    5.3   162     7.5   829.7    0.00 
 330   23:10   0.00   34.2    53    4.8   172     7.7   829.8    0.00 
 330   23:20   0.00   34.2    53    5.9   177     8.8   829.8    0.00 
 330   23:30   0.00   33.6    54    5.7   170     7.5   829.8    0.00 
 330   23:40   0.00   32.7    56    5.8   175     8.6   829.7    0.00 
 330   23:50   0.00   32.9    57    7.7   190    10.2   829.7    0.00 
 331    0:00   0.00   33.4    55    7.4   189    10.1   829.6    0.00 
 331    0:10   0.00   33.2    55    5.6   178     8.7   829.6    0.00 
 331    0:20   0.00   32.3    57    4.6   166     6.3   829.5    0.00 
 331    0:30   0.00   32.2    57    4.5   180     6.6   829.5    0.00 
 331    0:40   0.00   32.4    56    4.6   177     7.6   829.5    0.00 
 331    0:50   0.00   32.7    56    7.8   182    13.1   829.4    0.00 
 331    1:00   0.00   34.0    52   11.2   192    14.9   829.1    0.00 
 331    1:10   0.00   34.4    51   12.3   199    15.2   829.2    0.00 
 331    1:20   0.00   34.5    51   12.6   199    15.4   829.1    0.00 
 331    1:30   0.00   34.2    52   12.5   200    16.4   829.3    0.00 
 331    1:40   0.00   33.7    53   12.7   199    15.6   829.3    0.00 
 331    1:50   0.00   33.4    54   12.9   202    15.6   829.3    0.00 
 331    2:00   0.00   33.5    53   12.1   206    15.3   829.4    0.00 
 331    2:10   0.00   33.5    53   10.2   215    13.4   829.5    0.00 
 331    2:20   0.00   32.3    56    8.1   224     9.9   829.5    0.00 
 331    2:30   0.00   32.1    57    7.2   226     9.4   829.5    0.00 
 331    2:40   0.00   31.3    59    4.8   203     6.4   829.5    0.00 
 331    2:50   0.00   29.3    64    4.8   117     6.3   829.5    0.00 
 331    3:00   0.00   31.0    58    3.5   131     5.0   829.4    0.00 
 331    3:10   0.00   31.8    56    3.8   142     7.3   829.4    0.00 
 331    3:20   0.00   33.5    52    4.3   167     7.2   829.3    0.00 
 331    3:30   0.00   33.0    53    3.6   174     5.5   829.2    0.00 
 331    3:40   0.00   33.0    53    1.9   132     3.4   829.1    0.00 
 331    3:50   0.00   33.7    51    0.6   122     2.5   829.1    0.00 
 331    4:00   0.00   33.5    52    2.0   177     4.0   829.0    0.00 
 331    4:10   0.00   32.9    55    4.7   190     6.6   829.0    0.00 
 331    4:20   0.00   31.5    60    1.3   127     4.8   828.8    0.00 
 331    4:30   0.00   31.6    58    1.5   292     2.8   828.6    0.00 
 331    4:40   0.00   32.8    56    4.3   225     7.9   828.4    0.00 
 331    4:50   0.00   33.4    55    6.6   212     8.6   828.4    0.00 
 331    5:00   0.00   33.1    55    6.5   218     8.6   828.3    0.00 
 331    5:10   0.00   33.2    54    7.4   217    11.0   828.3    0.00 
 331    5:20   0.00   33.4    54    8.4   216    11.0   828.2    0.00 
 331    5:30   0.00   33.2    54    9.3   212    12.7   828.1    0.00 
 331    5:40   0.00   33.0    54    8.6   212    12.9   828.1    0.00 
 331    5:50   0.00   32.5    56    7.3   203     9.7   828.2    0.00 
 331    6:00   0.00   31.8    58    7.9   192    10.3   828.2    0.00 
 331    6:10   0.00   31.7    58    8.6   192    11.3   828.1    0.00 
 331    6:20   0.00   32.0    58    7.3   204     9.7   828.1    0.00 
 331    6:30   0.00   31.9    58    4.2   215     6.4   828.2    0.00 
 331    6:40   0.00   31.3    60    3.3   304     6.0   828.2    0.00 
 331    6:50   0.01   31.5    60    4.1   298     5.6   828.4    0.00 
 331    7:00   0.02   33.5    55    2.9   263     5.3   828.4    0.00 
 331    7:10   0.03   34.4    53    3.5   223     5.0   828.4    0.00 
 331    7:20   0.05   34.9    53    2.4   222     3.8   828.6    0.00 
 331    7:30   0.07   35.8    52    2.8   173     4.5   828.6    0.00 
 331    7:40   0.09   36.7    51    4.4   178     6.1   828.7    0.00 
 331    7:50   0.10   38.0    49    4.9   188     6.1   828.7    0.00 
 331    8:00   0.12   39.3    45    5.4   204     8.1   828.7    0.00 
 331    8:10   0.13   40.4    43    5.7   208     8.8   828.5    0.00 
 331    8:20   0.17   41.5    41    6.9   223    10.4   828.4    0.00 
 331    8:30   0.22   43.0    39    7.4   227    10.5   828.3    0.00 
 331    8:40   0.21   44.0    37    7.1   227    11.8   828.3    0.00 
 331    8:50   0.20   44.7    38    4.7   241     7.5   828.3    0.00 
 331    9:00   0.21   45.7    37    5.2   231     7.3   828.3    0.00 
 331    9:10   0.23   46.6    35    6.3   229     9.3   828.1    0.00 
 331    9:20   0.21   47.0    35    5.4   236     8.2   828.1    0.00 
 331    9:30   0.23   47.4    34    6.2   236     8.7   828.0    0.00 
 331    9:40   0.25   48.0    34    7.1   234    10.4   827.9    0.00 
 331    9:50   0.25   48.3    34    7.3   232    10.3   827.8    0.00 
 331   10:00   0.32   49.7    32    7.5   238    10.6   827.8    0.00 
 331   10:10   0.35   51.3    31    7.3   240    10.7   827.7    0.00 
 331   10:20   0.42   53.0    29    8.8   242    12.1   827.6    0.00 
 331   10:30   0.44   55.1    26    9.9   241    12.9   827.5    0.00 
 331   10:40   0.42   56.6    24   11.4   226    15.2   827.4    0.00 
 331   10:50   0.43   58.8    21   12.3   218    16.6   827.3    0.00 
 331   11:00   0.34   58.9    20   11.9   219    16.1   827.3    0.00 
 331   11:10   0.32   58.9    20   11.9   216    16.6   827.2    0.00 
 331   11:20   0.33   59.2    20   11.5   214    17.5   827.1    0.00 
 331   11:30   0.30   59.2    20   11.5   215    15.2   827.0    0.00 
 331   11:40   0.33   59.5    20   11.8   213    16.6   826.9    0.00 
 331   11:50   0.35   60.0    19   11.8   212    16.3   826.7    0.00 
 331   12:00   0.37   60.8    18   11.7   211    16.0   826.6    0.00 
 331   12:10   0.36   61.1    18   13.0   211    16.3   826.5    0.00 
 331   12:20   0.35   61.2    18   12.0   213    15.8   826.4    0.00 
 331   12:30   0.36   61.7    18   11.8   214    16.5   826.3    0.00 
 331   12:40   0.38   62.3    17   11.8   212    16.8   826.2    0.00 
 331   12:50   0.37   62.5    16   12.7   209    16.4   826.1    0.00 
 331   13:00   0.32   62.3    16   12.6   210    16.1   825.9    0.00 
 331   13:10   0.38   62.5    16   11.6   211    16.2   825.8    0.00 
 331   13:20   0.41   63.4    16   12.1   210    16.3   825.7    0.00 
 331   13:30   0.29   62.9    15   12.8   208    16.4   825.6    0.00 
 331   13:40   0.24   61.6    17   10.7   212    14.8   825.5    0.00 
 331   13:50   0.19   61.0    17   10.3   214    15.1   825.5    0.00 
 331   14:00   0.16   60.0    18   10.2   217    14.1   825.4    0.00 
 331   14:10   0.13   59.2    19    9.1   219    12.5   825.4    0.00 
 331   14:20   0.12   58.2    20    7.6   224     9.7   825.3    0.00 
 331   14:30   0.13   58.2    20    8.2   225    12.8   825.3    0.00 
 331   14:40   0.11   58.4    20    8.4   220    11.1   825.3    0.00 
 331   14:50   0.09   57.8    20    8.6   221    12.1   825.2    0.00 
 331   15:00   0.09   57.7    20    8.9   231    13.4   825.2    0.00 
 331   15:10   0.09   57.6    20    8.9   234    11.9   825.2    0.00 
 331   15:20   0.07   57.3    21    7.7   237    11.3   825.1    0.00 
 331   15:30   0.05   56.4    21    7.7   229    10.1   825.0    0.00 
 331   15:40   0.04   55.7    22    8.2   229    12.7   824.9    0.00 
 331   15:50   0.03   55.1    23    7.7   232    10.6   824.9    0.00 
 331   16:00   0.02   53.0    26    5.9   191     7.8   824.8    0.00 
 331   16:10   0.01   50.5    29    5.8   196     7.2   824.7    0.00 
 331   16:20   0.00   49.4    30    5.7   234     9.4   824.5    0.00 
 331   16:30   0.01   50.5    28    7.4   235    10.0   824.4    0.00 
 331   16:40   0.00   49.9    29    8.1   234    11.1   824.3    0.00 
 331   16:50   0.00   50.7    27    9.5   224    12.8   824.3    0.00 
 331   17:00   0.00   50.0    28   10.3   226    14.1   824.3    0.00 
 331   17:10   0.00   50.1    28   10.3   223    13.7   824.2    0.00 
 331   17:20   0.00   50.1    27   11.1   219    15.6   824.2    0.00 
 331   17:30   0.00   50.6    26   10.4   217    13.3   824.2    0.00 
 331   17:40   0.00   49.3    27   10.5   212    13.2   824.1    0.00 
 331   17:50   0.00   47.1    30    8.7   217    11.3   824.0    0.00 
 331   18:00   0.00   47.1    30   10.3   221    13.5   824.0    0.00 
 331   18:10   0.00   47.3    29   11.2   216    14.2   824.0    0.00 
 331   18:20   0.00   46.5    30   11.0   215    13.2   823.9    0.00 
 331   18:30   0.00   45.8    31   10.3   216    14.0   823.8    0.00 
 331   18:40   0.00   45.7    31   10.7   216    13.8   823.9    0.00 
 331   18:50   0.00   45.3    31    9.8   216    12.6   823.8    0.00 
 331   19:00   0.00   44.5    32    9.0   213    11.1   823.8    0.00 
 331   19:10   0.00   44.6    32    9.0   216    11.0   823.8    0.00 
 331   19:20   0.00   44.3    32    8.4   212    10.5   823.8    0.00 
 331   19:30   0.00   43.6    33    8.2   214    11.2   823.8    0.00 
 331   19:40   0.00   44.1    32    8.9   211    10.8   823.8    0.00 
 331   19:50   0.00   44.8    30   10.3   212    13.4   823.7    0.00 
 331   20:00   0.00   45.1    30   10.1   213    12.6   823.6    0.00 
 331   20:10   0.00   44.5    31    9.9   217    12.2   823.6    0.00 
 331   20:20   0.00   43.2    33    9.7   214    12.1   823.6    0.00 
 331   20:30   0.00   42.9    33    8.9   220    12.3   823.6    0.00 
 331   20:40   0.00   42.5    33    8.8   224    10.9   823.6    0.00 
 331   20:50   0.00   41.0    36    7.3   215     9.1   823.5    0.00 
 331   21:00   0.00   41.3    35    7.9   207    10.2   823.5    0.00 
 331   21:10   0.00   42.2    34    9.1   205    11.5   823.4    0.00 
 331   21:20   0.00   41.6    34    9.2   211    12.0   823.4    0.00 
 331   21:30   0.00   41.0    36    8.1   217    10.4   823.4    0.00 
 331   21:40   0.00   39.9    37    7.7   215    10.5   823.4    0.00 
 331   21:50   0.00   39.6    37    8.4   213    10.6   823.4    0.00 
 331   22:00   0.00   39.8    36    7.6   217     9.8   823.4    0.00 
 331   22:10   0.00   39.6    36    6.9   221     8.4   823.4    0.00 
 331   22:20   0.00   39.3    37    6.5   237     8.5   823.4    0.00 
 331   22:30   0.00   38.3    39    6.0   230     7.7   823.4    0.00 
 331   22:40   0.00   37.3    41    5.5   231     6.4   823.3    0.00 
 331   22:50   0.00   36.9    42    5.3   241     7.2   823.3    0.00 

Return to Steptoe Valley North graphs page.


Western Regional Climate Center,wrcc@dri.edu